Time;durP1;ratioP1;P1;durP2;ratioP2;P2;SDS_P1;SDS_P2;PMS_P1;PMS_P2;Temp;Humidity;BMP_temperature;BMP_pressure;BME280_temperature;BME280_humidity;BME280_pressure;Samples;Min_cycle;Max_cycle;Signal;HPM_P1;HPM_P2
2021/03/13 00:00:14;;;;;;;70.85;35.85;;;;;;;6.69;63.50;100063.13;5062437;28;20063;-64
2021/03/13 00:02:44;;;;;;;73.97;37.65;;;;;;;6.89;62.64;100071.97;5060459;28;20028;-70
2021/03/13 00:05:22;;;;;;;79.80;38.97;;;;;;;6.83;63.04;100075.13;5060822;28;20211;-64
2021/03/13 00:07:48;;;;;;;91.70;43.75;;;;;;;6.86;63.07;100061.69;5050705;28;20430;-65
2021/03/13 00:10:14;;;;;;;97.03;46.42;;;;;;;6.98;62.68;100066.75;5040800;28;20227;-66
2021/03/13 00:12:39;;;;;;;105.38;44.47;;;;;;;7.00;62.29;100066.63;5045457;28;20029;-64
2021/03/13 00:15:06;;;;;;;133.98;57.17;;;;;;;6.94;62.96;100067.97;5043872;28;20025;-69
2021/03/13 00:17:32;;;;;;;134.45;58.42;;;;;;;6.90;63.30;100068.38;5045644;28;20185;-64
2021/03/13 00:19:58;;;;;;;116.18;52.10;;;;;;;6.78;63.73;100070.25;5044225;28;20060;-69
2021/03/13 00:22:24;;;;;;;105.60;50.65;;;;;;;6.72;63.63;100063.69;5043726;28;20045;-70
2021/03/13 00:24:49;;;;;;;101.20;46.45;;;;;;;6.69;63.67;100058.69;5045447;28;20035;-72
2021/03/13 00:27:14;;;;;;;93.25;43.60;;;;;;;6.50;64.39;100052.47;5042553;28;20052;-72
2021/03/13 00:29:40;;;;;;;97.38;43.63;;;;;;;6.61;63.18;100049.78;5046174;28;20068;-72
2021/03/13 00:32:06;;;;;;;98.63;45.30;;;;;;;6.56;63.79;100047.53;5042814;28;20033;-71
2021/03/13 00:34:32;;;;;;;86.45;39.78;;;;;;;6.45;64.29;100033.63;5046051;28;20288;-72
2021/03/13 00:36:57;;;;;;;76.55;38.35;;;;;;;6.47;63.96;100037.78;5044454;28;20080;-67
2021/03/13 00:39:23;;;;;;;73.63;35.15;;;;;;;6.41;64.06;100022.53;5044015;28;20075;-67
2021/03/13 00:41:48;;;;;;;78.05;36.83;;;;;;;6.58;63.32;100036.88;5043757;28;20033;-67
2021/03/13 00:44:14;;;;;;;79.43;35.95;;;;;;;6.46;64.35;100045.81;5046688;28;20303;-67
2021/03/13 00:46:41;;;;;;;74.78;32.28;;;;;;;6.51;63.95;100041.81;5043300;28;20042;-71
2021/03/13 00:49:07;;;;;;;70.95;34.58;;;;;;;6.18;64.83;100042.81;5043056;28;20029;-66
2021/03/13 00:51:32;;;;;;;79.22;34.78;;;;;;;6.48;64.42;100046.50;5047121;28;20047;-64
2021/03/13 00:53:58;;;;;;;81.50;35.17;;;;;;;6.46;64.52;100035.28;5047284;28;20028;-69
2021/03/13 00:56:23;;;;;;;72.45;35.25;;;;;;;6.36;64.83;100035.22;5052783;28;20040;-64
2021/03/13 00:58:49;;;;;;;74.18;33.83;;;;;;;6.43;64.08;100032.91;5048238;28;20028;-70
2021/03/13 01:01:15;;;;;;;74.43;32.17;;;;;;;6.36;64.56;100017.63;5055551;28;20438;-64
2021/03/13 01:03:40;;;;;;;61.08;29.38;;;;;;;6.19;64.75;100010.28;5040597;28;20021;-64
2021/03/13 01:06:06;;;;;;;62.58;30.60;;;;;;;6.37;64.50;99995.63;5059031;28;20079;-65
2021/03/13 01:08:31;;;;;;;63.25;30.85;;;;;;;6.45;64.08;99992.38;5060752;28;20032;-64
2021/03/13 01:10:57;;;;;;;59.80;28.92;;;;;;;6.43;64.13;99989.03;5044873;28;20060;-64
2021/03/13 01:13:23;;;;;;;59.85;28.60;;;;;;;6.21;65.20;99968.09;5047717;28;20349;-64
2021/03/13 01:15:49;;;;;;;56.47;28.63;;;;;;;6.41;65.18;99977.81;5041059;28;20045;-70
2021/03/13 01:18:18;;;;;;;54.28;28.00;;;;;;;6.36;64.66;99970.31;5047798;28;20307;-64
2021/03/13 01:20:44;;;;;;;58.72;28.42;;;;;;;6.21;65.12;99973.34;5042151;28;20061;-65
2021/03/13 01:23:10;;;;;;;60.85;28.42;;;;;;;6.12;65.75;99976.75;5047230;28;20032;-69
2021/03/13 01:25:36;;;;;;;55.10;27.05;;;;;;;6.23;65.66;99974.91;5042248;28;20303;-72
2021/03/13 01:28:01;;;;;;;59.03;27.38;;;;;;;6.28;65.77;99975.38;5044184;28;20041;-72
2021/03/13 01:30:27;;;;;;;59.50;27.70;;;;;;;6.47;64.36;99968.56;5047032;28;20033;-71
2021/03/13 01:32:53;;;;;;;58.88;27.65;;;;;;;6.09;65.26;99964.69;5041844;28;20033;-72
2021/03/13 01:35:19;;;;;;;57.83;30.02;;;;;;;5.74;67.18;99975.47;5045684;28;20036;-64
2021/03/13 01:37:46;;;;;;;62.40;27.27;;;;;;;5.95;66.92;99968.47;5043437;28;20215;-70
2021/03/13 01:40:16;;;;;;;54.15;26.92;;;;;;;6.14;66.48;99959.88;5043410;28;21351;-65
2021/03/13 01:42:47;;;;;;;60.97;29.58;;;;;;;6.32;66.33;99949.66;5043955;28;20324;-64
2021/03/13 01:45:14;;;;;;;52.22;27.77;;;;;;;6.23;65.99;99939.88;5049137;28;20037;-66
2021/03/13 01:47:40;;;;;;;53.85;26.25;;;;;;;6.38;65.69;99946.50;5060295;28;20025;-66
2021/03/13 01:50:08;;;;;;;52.22;25.63;;;;;;;6.60;64.13;99962.13;5045248;28;20037;-67
2021/03/13 01:52:34;;;;;;;53.22;26.92;;;;;;;6.52;64.71;99947.97;5042629;28;20101;-72
2021/03/13 01:55:06;;;;;;;52.65;27.35;;;;;;;6.54;64.75;99954.75;5045298;28;20045;-67
2021/03/13 01:57:32;;;;;;;46.92;24.95;;;;;;;6.67;63.97;99946.63;5044380;28;20315;-67
2021/03/13 01:59:57;;;;;;;54.20;24.98;;;;;;;6.70;63.46;99941.94;5043735;28;21383;-67
2021/03/13 02:02:23;;;;;;;53.67;24.98;;;;;;;6.52;63.96;99946.16;5044467;28;20316;-67
2021/03/13 02:04:48;;;;;;;50.55;25.77;;;;;;;6.46;64.72;99937.97;5051602;28;20311;-66
2021/03/13 02:07:28;;;;;;;55.50;26.30;;;;;;;6.49;64.46;99942.97;5044585;28;20037;-67
2021/03/13 02:10:14;;;;;;;50.00;25.42;;;;;;;6.54;64.01;99944.22;5048587;28;20029;-72
2021/03/13 02:13:08;;;;;;;54.95;26.80;;;;;;;6.57;63.66;99951.03;5044730;28;20041;-67
2021/03/13 02:15:46;;;;;;;58.90;29.08;;;;;;;6.38;63.66;99957.03;5051629;28;20029;-67
2021/03/13 02:18:39;;;;;;;50.88;25.85;;;;;;;6.15;65.38;99951.03;5047556;28;20346;-66
2021/03/13 02:21:10;;;;;;;54.63;27.30;;;;;;;6.27;64.42;99943.94;5044249;28;20217;-72
2021/03/13 02:24:03;;;;;;;57.00;27.58;;;;;;;6.27;64.71;99942.16;5046477;28;20069;-72
2021/03/13 02:26:56;;;;;;;59.53;29.50;;;;;;;6.26;64.60;99939.66;5046850;28;20355;-71
2021/03/13 02:29:24;;;;;;;54.07;28.10;;;;;;;6.35;63.86;99939.69;5063368;28;20029;-72
2021/03/13 02:31:55;;;;;;;61.37;29.67;;;;;;;6.26;64.17;99940.47;5058952;28;20029;-72
2021/03/13 02:34:27;;;;;;;69.35;31.15;;;;;;;6.12;65.05;99943.41;5048996;28;20026;-67
2021/03/13 02:36:55;;;;;;;67.85;31.88;;;;;;;6.17;64.59;99945.66;5043727;28;20096;-72
2021/03/13 02:39:25;;;;;;;74.60;34.58;;;;;;;6.04;64.79;99949.31;5047987;28;20020;-66
2021/03/13 02:41:57;;;;;;;67.05;34.08;;;;;;;6.24;64.77;99946.81;5048225;28;20089;-72
2021/03/13 02:44:23;;;;;;;71.10;35.05;;;;;;;6.01;64.69;99941.69;5048389;28;20212;-71
2021/03/13 02:46:51;;;;;;;74.88;35.53;;;;;;;6.10;64.89;99932.19;5046180;28;20037;-70
2021/03/13 02:49:20;;;;;;;69.68;34.60;;;;;;;6.26;64.16;99944.91;5045057;28;20025;-64
2021/03/13 02:51:46;;;;;;;68.55;35.25;;;;;;;6.42;64.16;99940.00;5047814;28;20029;-72
2021/03/13 02:54:12;;;;;;;73.80;34.20;;;;;;;6.46;63.97;99932.69;5044057;28;20030;-72
2021/03/13 02:56:41;;;;;;;73.60;35.20;;;;;;;6.43;63.46;99927.69;5047681;28;20041;-71
2021/03/13 02:59:09;;;;;;;72.97;34.85;;;;;;;6.39;64.30;99943.75;5046011;28;20219;-66
2021/03/13 03:01:35;;;;;;;66.47;32.70;;;;;;;6.35;64.29;99937.06;5046573;28;20043;-67
2021/03/13 03:04:01;;;;;;;65.30;34.03;;;;;;;6.46;63.61;99938.78;5043930;28;20032;-64
2021/03/13 03:06:33;;;;;;;65.00;32.72;;;;;;;6.48;63.92;99943.91;5048693;28;20269;-73
2021/03/13 03:09:00;;;;;;;65.95;33.53;;;;;;;6.55;63.54;99955.59;5043133;28;20044;-72
2021/03/13 03:11:26;;;;;;;64.30;32.45;;;;;;;6.61;63.67;99955.88;5046042;28;20369;-67
2021/03/13 03:13:54;;;;;;;62.35;33.08;;;;;;;6.59;63.19;99941.19;5052297;28;20040;-66
2021/03/13 03:16:23;;;;;;;65.57;32.88;;;;;;;6.44;64.12;99934.63;5062606;28;20032;-71
2021/03/13 03:18:56;;;;;;;68.22;35.22;;;;;;;6.67;63.47;99933.47;5054881;28;20210;-66
2021/03/13 03:21:21;;;;;;;67.55;34.90;;;;;;;6.47;64.01;99915.94;5044894;28;20037;-67
2021/03/13 03:23:48;;;;;;;66.65;35.13;;;;;;;6.58;63.36;99921.13;5047547;28;20024;-73
2021/03/13 03:26:13;;;;;;;65.28;34.88;;;;;;;6.38;64.44;99917.56;5043502;28;20026;-67
2021/03/13 03:28:39;;;;;;;69.15;35.58;;;;;;;6.47;63.91;99919.41;5047606;28;20036;-73
2021/03/13 03:31:05;;;;;;;61.78;33.30;;;;;;;6.52;63.71;99908.50;5045691;28;20041;-64
2021/03/13 03:33:30;;;;;;;68.25;33.42;;;;;;;6.63;63.59;99898.72;5062269;28;20096;-69
2021/03/13 03:35:56;;;;;;;61.92;31.88;;;;;;;6.70;62.97;99899.00;5053680;28;20055;-69
2021/03/13 03:38:21;;;;;;;67.97;35.10;;;;;;;6.73;63.13;99906.63;5045095;28;20287;-64
2021/03/13 03:40:48;;;;;;;65.93;34.60;;;;;;;6.81;62.87;99906.78;5047574;28;20334;-72
2021/03/13 03:43:14;;;;;;;67.18;33.58;;;;;;;6.65;63.27;99917.81;5044961;28;20259;-67
2021/03/13 03:45:46;;;;;;;66.80;35.00;;;;;;;6.69;63.28;99910.50;5048084;28;20033;-70
2021/03/13 03:48:14;;;;;;;66.05;34.60;;;;;;;6.80;62.31;99909.56;5058651;28;20370;-64
2021/03/13 03:50:43;;;;;;;82.70;35.13;;;;;;;6.75;62.46;99907.34;5060877;28;20043;-64
2021/03/13 03:53:14;;;;;;;72.38;34.58;;;;;;;6.58;63.38;99898.28;5061022;28;20039;-69
2021/03/13 03:55:44;;;;;;;67.90;35.35;;;;;;;6.32;64.39;99894.44;5054086;28;20029;-64
2021/03/13 03:58:11;;;;;;;80.68;38.20;;;;;;;6.06;64.98;99881.66;5045165;28;20064;-69
2021/03/13 04:00:37;;;;;;;67.90;34.97;;;;;;;6.33;65.00;99899.56;5061620;28;20035;-70
2021/03/13 04:03:06;;;;;;;66.93;33.72;;;;;;;6.37;64.67;99900.97;5058719;28;20033;-64
2021/03/13 04:05:33;;;;;;;68.07;33.65;;;;;;;6.75;63.51;99899.44;5045120;28;20115;-64
2021/03/13 04:07:59;;;;;;;67.95;33.72;;;;;;;6.75;63.17;99906.50;5061912;28;20036;-64
2021/03/13 04:10:26;;;;;;;76.60;35.67;;;;;;;6.72;63.40;99920.75;5057458;28;20059;-69
2021/03/13 04:12:52;;;;;;;73.60;36.65;;;;;;;6.68;63.05;99945.66;5045194;28;20033;-69
2021/03/13 04:15:19;;;;;;;79.15;36.80;;;;;;;6.54;63.72;99952.13;5043726;28;20029;-64
2021/03/13 04:17:45;;;;;;;71.15;37.00;;;;;;;6.63;63.98;99955.75;5049439;28;20028;-69
2021/03/13 04:20:11;;;;;;;74.38;34.30;;;;;;;6.63;63.81;99943.44;5044021;28;20277;-70
2021/03/13 04:22:38;;;;;;;77.88;36.13;;;;;;;6.76;63.61;99955.53;5046592;28;20421;-65
2021/03/13 04:25:05;;;;;;;77.35;36.75;;;;;;;6.89;63.19;99941.19;5041405;28;20122;-64
2021/03/13 04:27:31;;;;;;;78.82;34.83;;;;;;;6.81;62.55;99940.19;5045869;28;20045;-66
2021/03/13 04:29:57;;;;;;;74.15;36.85;;;;;;;6.59;63.44;99938.56;5046609;28;20125;-72
2021/03/13 04:32:24;;;;;;;73.07;36.42;;;;;;;6.55;63.84;99953.78;5042257;28;20040;-72
2021/03/13 04:34:52;;;;;;;77.20;36.10;;;;;;;6.43;65.07;99962.72;5047859;28;20044;-72
2021/03/13 04:37:20;;;;;;;70.57;33.72;;;;;;;6.34;65.39;99961.72;5043429;28;20331;-70
2021/03/13 04:39:46;;;;;;;70.28;33.53;;;;;;;6.47;65.22;99953.59;5044391;28;20048;-70
2021/03/13 04:42:12;;;;;;;74.97;35.42;;;;;;;6.49;64.94;99956.09;5043073;28;20064;-73
2021/03/13 04:44:39;;;;;;;71.38;32.92;;;;;;;6.18;66.26;99924.50;5045530;28;20053;-66
2021/03/13 04:47:05;;;;;;;61.25;31.25;;;;;;;6.16;66.48;99947.44;5047529;28;20207;-66
2021/03/13 04:49:31;;;;;;;65.63;31.63;;;;;;;5.88;67.74;99946.25;5042611;28;20020;-72
2021/03/13 04:51:59;;;;;;;65.93;32.67;;;;;;;5.61;68.63;99941.50;5044865;28;20056;-66
2021/03/13 04:54:26;;;;;;;80.07;39.28;;;;;;;5.22;69.69;99934.22;5044185;28;20013;-74
2021/03/13 04:56:52;;;;;;;74.17;33.67;;;;;;;5.09;70.98;99935.16;5043983;28;20280;-74
2021/03/13 04:59:18;;;;;;;72.57;33.57;;;;;;;5.08;71.30;99945.78;5043304;28;20033;-74
2021/03/13 05:01:44;;;;;;;70.43;32.47;;;;;;;5.02;71.67;99941.03;5050266;28;20033;-74
2021/03/13 05:04:09;;;;;;;58.73;30.93;;;;;;;4.85;72.87;99950.22;5060848;28;20060;-68
2021/03/13 05:06:35;;;;;;;66.77;32.20;;;;;;;5.03;72.64;99950.56;5049352;28;20041;-68
2021/03/13 05:09:00;;;;;;;61.77;30.80;;;;;;;5.08;71.96;99956.28;5046125;28;20034;-67
2021/03/13 05:11:26;;;;;;;64.93;32.10;;;;;;;5.26;71.33;99957.47;5042281;28;20033;-72
2021/03/13 05:13:51;;;;;;;63.07;31.50;;;;;;;5.26;70.85;99957.47;5043676;28;20028;-72
2021/03/13 05:16:17;;;;;;;64.37;31.77;;;;;;;5.18;71.96;99962.47;5045607;28;20331;-67
2021/03/13 05:18:42;;;;;;;55.83;29.67;;;;;;;5.53;70.61;99959.66;5042325;28;20243;-72
2021/03/13 05:21:08;;;;;;;60.50;32.27;;;;;;;5.52;69.85;99954.53;5045891;28;20115;-67
2021/03/13 05:23:33;;;;;;;91.33;44.73;;;;;;;5.63;70.16;99970.25;5043379;28;20029;-67
2021/03/13 05:25:59;;;;;;;96.77;45.10;;;;;;;5.76;69.49;99963.88;5042592;28;20327;-72
2021/03/13 05:28:24;;;;;;;87.15;41.45;;;;;;;5.79;68.59;99968.03;5040738;28;20029;-72
2021/03/13 05:30:50;;;;;;;78.68;39.78;;;;;;;5.88;69.00;99976.97;5045577;28;20045;-72
2021/03/13 05:33:16;;;;;;;83.07;39.90;;;;;;;6.19;67.63;99973.47;5041812;28;20021;-67
2021/03/13 05:35:41;;;;;;;151.10;54.58;;;;;;;6.37;67.38;99969.34;5043168;28;20029;-67
2021/03/13 05:38:07;;;;;;;101.15;43.53;;;;;;;6.53;65.99;99979.41;5050249;28;20025;-68
2021/03/13 05:40:33;;;;;;;70.18;33.85;;;;;;;6.58;66.14;99989.53;5046152;28;20037;-69
2021/03/13 05:42:59;;;;;;;55.90;30.52;;;;;;;6.67;65.95;99991.38;5049699;28;20311;-69
2021/03/13 05:45:26;;;;;;;60.30;31.00;;;;;;;6.67;65.83;100000.09;5046373;28;20033;-65
2021/03/13 05:47:54;;;;;;;54.75;29.48;;;;;;;6.70;65.74;100005.09;5049377;28;20040;-64
2021/03/13 05:50:21;;;;;;;78.00;37.13;;;;;;;6.81;65.40;100001.53;5044758;28;20105;-64
2021/03/13 05:52:54;;;;;;;104.15;48.80;;;;;;;7.01;65.20;99999.81;5049429;28;20071;-69
2021/03/13 05:55:20;;;;;;;82.68;39.55;;;;;;;7.11;64.74;100000.69;5044486;28;20045;-65
2021/03/13 05:57:45;;;;;;;67.72;36.40;;;;;;;7.15;64.97;99996.00;5046832;28;20029;-70
2021/03/13 06:00:11;;;;;;;77.55;40.83;;;;;;;7.33;64.34;100012.84;5044327;28;20037;-70
2021/03/13 06:02:37;;;;;;;87.47;42.95;;;;;;;7.35;64.67;100014.38;5054363;28;20059;-69
2021/03/13 06:05:03;;;;;;;77.60;38.72;;;;;;;7.28;64.04;100002.72;5063719;28;20315;-64
2021/03/13 06:07:31;;;;;;;72.90;35.70;;;;;;;7.43;64.49;100010.25;5053107;28;20067;-69
2021/03/13 06:09:57;;;;;;;75.97;36.85;;;;;;;7.60;63.61;99999.88;5047346;28;20037;-69
2021/03/13 06:12:24;;;;;;;66.93;33.47;;;;;;;7.76;62.30;99985.31;5044103;28;20036;-65
2021/03/13 06:14:51;;;;;;;58.67;30.45;;;;;;;7.64;63.14;99992.53;5046601;28;20065;-70
2021/03/13 06:17:17;;;;;;;56.58;29.25;;;;;;;7.62;62.25;99986.56;5044489;28;20043;-64
2021/03/13 06:19:56;;;;;;;61.00;32.08;;;;;;;7.58;63.04;99993.06;5048846;28;20021;-66
2021/03/13 06:22:42;;;;;;;77.90;37.20;;;;;;;7.27;64.03;99995.75;5044131;28;20486;-64
2021/03/13 06:25:10;;;;;;;70.47;33.70;;;;;;;7.19;64.92;99997.38;5046389;28;20049;-64
2021/03/13 06:27:36;;;;;;;82.85;39.80;;;;;;;7.06;65.45;100000.25;5046308;28;20292;-66
2021/03/13 06:30:09;;;;;;;73.60;35.67;;;;;;;6.95;65.78;99997.72;5047923;28;20037;-66
2021/03/13 06:32:35;;;;;;;72.73;36.53;;;;;;;6.87;66.40;100001.03;5044443;28;20037;-72
2021/03/13 06:35:30;;;;;;;64.43;35.28;;;;;;;7.09;65.14;100002.63;5057632;28;20032;-67
2021/03/13 06:37:57;;;;;;;68.55;36.60;;;;;;;7.15;64.70;100004.72;5063076;28;20086;-72
2021/03/13 06:40:29;;;;;;;62.15;32.65;;;;;;;7.53;64.36;100011.91;5045073;28;20037;-66
2021/03/13 06:42:56;;;;;;;68.57;35.70;;;;;;;7.29;65.53;100012.28;5046196;28;20041;-66
2021/03/13 06:45:22;;;;;;;63.10;33.55;;;;;;;7.37;64.21;100008.97;5046922;28;20775;-66
2021/03/13 06:47:49;;;;;;;59.10;31.77;;;;;;;7.59;63.95;100011.38;5045829;28;20030;-70
2021/03/13 06:50:17;;;;;;;61.33;33.42;;;;;;;8.03;62.22;100017.09;5079424;28;20110;-70
2021/03/13 06:52:47;;;;;;;58.35;32.80;;;;;;;8.06;62.90;100005.44;5046543;28;20142;-70
2021/03/13 06:55:17;;;;;;;68.82;34.25;;;;;;;7.82;63.75;100009.31;5044285;28;20045;-64
2021/03/13 06:57:44;;;;;;;67.93;34.45;;;;;;;7.74;64.46;100018.88;5047818;28;20020;-71
2021/03/13 07:00:23;;;;;;;68.50;33.63;;;;;;;7.81;64.98;100012.94;5049588;28;20032;-71
2021/03/13 07:02:49;;;;;;;70.63;37.13;;;;;;;7.81;65.09;100020.84;5062474;28;20056;-66
2021/03/13 07:05:15;;;;;;;73.22;35.97;;;;;;;7.47;65.59;100014.25;5046276;28;20025;-66
2021/03/13 07:07:41;;;;;;;67.50;34.63;;;;;;;7.46;65.45;100013.44;5043921;28;20677;-67
2021/03/13 07:10:07;;;;;;;70.28;33.85;;;;;;;7.72;63.83;100008.47;5050892;28;20037;-68
2021/03/13 07:12:41;;;;;;;71.25;35.85;;;;;;;7.91;63.87;100008.50;5044356;28;20029;-64
2021/03/13 07:15:25;;;;;;;94.88;45.22;;;;;;;7.94;64.95;99996.84;5055548;28;20234;-69
2021/03/13 07:18:00;;;;;;;90.75;45.15;;;;;;;8.09;64.14;100003.34;5062372;28;20372;-64
2021/03/13 07:20:29;;;;;;;89.25;44.10;;;;;;;8.14;63.51;99995.00;5047112;28;20041;-66
2021/03/13 07:22:57;;;;;;;79.57;41.78;;;;;;;8.63;61.57;100009.84;5045501;28;20320;-71
2021/03/13 07:25:24;;;;;;;80.25;41.13;;;;;;;8.91;60.79;100001.00;5044793;28;20262;-72
2021/03/13 07:27:57;;;;;;;76.97;40.17;;;;;;;9.19;59.22;99999.19;5046974;28;20139;-72
2021/03/13 07:30:23;;;;;;;75.03;40.13;;;;;;;9.41;59.20;99997.16;5044959;28;20053;-67
2021/03/13 07:32:52;;;;;;;80.10;41.33;;;;;;;10.08;57.30;100003.78;5044711;28;20079;-67
2021/03/13 07:35:21;;;;;;;80.35;39.83;;;;;;;10.65;56.86;99988.38;5052039;28;20079;-67
2021/03/13 07:37:52;;;;;;;69.82;38.03;;;;;;;10.93;53.57;99984.53;5062180;28;20039;-66
2021/03/13 07:40:19;;;;;;;78.43;41.72;;;;;;;11.24;53.03;99986.66;5052130;28;20055;-67
2021/03/13 07:42:46;;;;;;;74.28;41.47;;;;;;;11.38;54.16;99978.09;5045649;28;20220;-67
2021/03/13 07:45:13;;;;;;;78.68;41.35;;;;;;;11.02;54.99;99993.34;5046127;28;20056;-66
2021/03/13 07:47:41;;;;;;;81.38;41.05;;;;;;;10.84;56.19;99994.25;5058310;28;20029;-72
2021/03/13 07:50:14;;;;;;;73.32;39.22;;;;;;;11.00;56.40;99988.22;5054653;28;20040;-72
2021/03/13 07:52:41;;;;;;;63.25;33.85;;;;;;;11.32;54.19;100000.75;5056189;28;20083;-67
2021/03/13 07:55:13;;;;;;;65.28;33.63;;;;;;;11.30;55.02;99994.78;5061903;28;20252;-73
2021/03/13 07:57:43;;;;;;;59.63;31.42;;;;;;;11.57;53.95;99999.03;5045652;28;20032;-67
2021/03/13 08:00:09;;;;;;;52.55;29.38;;;;;;;11.62;53.89;100006.53;5041717;28;20331;-66
2021/03/13 08:02:36;;;;;;;62.65;31.80;;;;;;;11.82;53.69;99994.66;5047449;28;20035;-66
2021/03/13 08:05:15;;;;;;;58.35;32.92;;;;;;;12.09;52.06;99996.16;5042321;28;20041;-68
2021/03/13 08:08:03;;;;;;;56.58;35.90;;;;;;;12.03;51.80;99996.81;5058231;28;20212;-72
2021/03/13 08:10:41;;;;;;;51.33;27.42;;;;;;;12.15;50.55;100000.81;5060437;28;20064;-66
2021/03/13 08:13:08;;;;;;;47.83;27.83;;;;;;;12.58;50.04;100007.59;5047989;28;20042;-72
2021/03/13 08:15:34;;;;;;;47.03;26.98;;;;;;;13.10;48.84;99996.50;5055379;28;20258;-67
2021/03/13 08:18:00;;;;;;;64.10;35.35;;;;;;;12.86;49.35;99993.94;5061165;28;20024;-67
2021/03/13 08:20:30;;;;;;;55.88;40.65;;;;;;;12.76;48.65;99994.13;5046193;28;20074;-73
2021/03/13 08:23:11;;;;;;;36.90;23.70;;;;;;;12.98;46.20;99989.91;5046471;28;20322;-72
2021/03/13 08:25:55;;;;;;;38.90;23.98;;;;;;;13.01;46.67;99986.91;5043820;28;20041;-72
2021/03/13 08:28:45;;;;;;;50.65;27.35;;;;;;;13.21;47.82;99979.38;5043418;28;20036;-67
2021/03/13 08:31:26;;;;;;;43.40;23.77;;;;;;;13.05;47.28;99969.59;5043825;28;20037;-72
2021/03/13 08:33:56;;;;;;;38.35;23.60;;;;;;;12.95;45.67;99959.19;5039995;28;20079;-72
2021/03/13 08:36:33;;;;;;;37.75;22.88;;;;;;;13.39;44.81;99961.34;5043038;28;20048;-67
2021/03/13 08:39:14;;;;;;;36.22;20.63;;;;;;;13.77;42.44;99956.97;5044018;28;20089;-74
2021/03/13 08:41:42;;;;;;;32.88;20.15;;;;;;;14.10;41.64;99960.19;5044626;28;20029;-67
2021/03/13 08:44:10;;;;;;;42.85;23.17;;;;;;;14.10;43.61;99948.72;5061193;28;20043;-68
2021/03/13 08:46:48;;;;;;;39.10;22.88;;;;;;;14.04;43.66;99952.91;5054885;28;20047;-72
2021/03/13 08:49:28;;;;;;;39.30;21.38;;;;;;;14.07;42.50;99953.38;5045932;28;20029;-66
2021/03/13 08:52:09;;;;;;;38.22;22.80;;;;;;;13.94;44.28;99957.66;5048156;28;20310;-67
2021/03/13 08:54:37;;;;;;;88.63;36.33;;;;;;;13.89;43.85;99957.38;5045066;28;20021;-72
2021/03/13 08:57:09;;;;;;;53.33;25.05;;;;;;;14.02;44.32;99955.75;5043726;28;20105;-70
2021/03/13 08:59:36;;;;;;;47.17;24.73;;;;;;;13.89;43.41;99952.88;5043550;28;20025;-72
2021/03/13 09:02:13;;;;;;;41.35;23.42;;;;;;;13.70;46.27;99950.69;5043486;28;20247;-67
2021/03/13 09:04:54;;;;;;;42.47;23.10;;;;;;;13.29;46.48;99950.09;5043569;28;20374;-73
2021/03/13 09:07:22;;;;;;;42.88;24.42;;;;;;;13.02;48.14;99948.69;5045593;28;20041;-67
2021/03/13 09:09:49;;;;;;;46.17;26.65;;;;;;;12.68;50.31;99946.31;5042792;28;20030;-72
2021/03/13 09:12:20;;;;;;;43.58;24.67;;;;;;;12.34;50.03;99944.72;5047100;28;20057;-73
2021/03/13 09:14:49;;;;;;;50.75;27.40;;;;;;;12.53;50.30;99948.03;5049062;28;20338;-67
2021/03/13 09:17:16;;;;;;;41.28;24.63;;;;;;;12.12;51.40;99940.91;5052761;28;20029;-72
2021/03/13 09:19:44;;;;;;;85.32;46.15;;;;;;;12.21;51.33;99938.25;5060546;28;20029;-72
2021/03/13 09:22:21;;;;;;;141.43;70.90;;;;;;;12.19;51.44;99941.06;5057098;28;20052;-72
2021/03/13 09:24:55;;;;;;;59.95;32.88;;;;;;;11.96;56.27;99940.09;5050491;28;20033;-71
2021/03/13 09:27:25;;;;;;;;;;;;;;;11.82;53.98;99941.59;5046412;28;20037;-72
2021/03/13 09:29:53;;;;;;;45.33;26.35;;;;;;;12.08;53.95;99938.75;5049935;28;20195;-66
2021/03/13 09:32:19;;;;;;;41.65;26.17;;;;;;;12.27;53.25;99929.63;5081188;28;20041;-66
2021/03/13 09:34:49;;;;;;;88.85;48.13;;;;;;;12.20;54.25;99931.28;5049590;28;20033;-67
2021/03/13 09:37:15;;;;;;;46.55;26.90;;;;;;;11.80;54.42;99923.19;5047910;28;20251;-66
2021/03/13 09:39:42;;;;;;;49.95;28.63;;;;;;;11.53;56.39;99915.50;5049844;28;20021;-74
2021/03/13 09:42:19;;;;;;;49.55;28.42;;;;;;;11.82;53.91;99918.53;5045881;28;20280;-73
2021/03/13 09:44:54;;;;;;;48.40;28.40;;;;;;;12.03;55.03;99914.53;5049817;28;20033;-73
2021/03/13 09:47:27;;;;;;;70.10;36.05;;;;;;;12.11;54.24;99906.56;5052864;28;20098;-67
2021/03/13 09:49:55;;;;;;;78.63;43.85;;;;;;;12.39;55.76;99907.84;5048577;28;20358;-72
2021/03/13 09:52:32;;;;;;;69.40;38.53;;;;;;;12.37;52.52;99912.50;5053238;28;20041;-67
2021/03/13 09:55:03;;;;;;;54.28;31.20;;;;;;;12.46;52.36;99916.78;5059362;28;20036;-66
2021/03/13 09:57:29;;;;;;;54.45;32.30;;;;;;;12.46;52.18;99913.31;5059318;28;20372;-67
2021/03/13 09:59:55;;;;;;;52.10;31.05;;;;;;;12.52;53.42;99917.16;5061544;28;20029;-67
2021/03/13 10:02:21;;;;;;;49.38;29.50;;;;;;;12.36;51.81;99918.81;5065080;28;20084;-72
2021/03/13 10:04:51;;;;;;;53.53;30.75;;;;;;;12.31;51.48;99918.50;5058462;28;20033;-73
2021/03/13 10:07:17;;;;;;;50.92;30.23;;;;;;;12.47;53.45;99922.94;5059955;28;20029;-72
2021/03/13 10:09:59;;;;;;;51.35;28.55;;;;;;;12.57;52.15;99922.78;5059845;28;20231;-72
2021/03/13 10:12:35;;;;;;;52.83;30.58;;;;;;;12.45;53.22;99901.84;5063145;28;20048;-67
2021/03/13 10:15:30;;;;;;;52.13;31.13;;;;;;;12.12;55.14;99906.41;5059759;28;20047;-73
2021/03/13 10:18:14;;;;;;;52.22;30.38;;;;;;;12.02;54.93;99907.59;5057735;28;20092;-67
2021/03/13 10:20:47;;;;;;;;;;;;;;;12.45;54.05;99914.31;5055844;28;20075;-67
2021/03/13 10:23:18;;;;;;;57.65;31.92;;;;;;;12.68;53.37;99914.44;5056420;28;19913;-73
2021/03/13 10:26:06;;;;;;;53.80;31.08;;;;;;;12.76;53.11;99919.72;5062884;28;20033;-67
2021/03/13 10:28:33;;;;;;;59.38;33.38;;;;;;;12.98;53.58;99918.13;5058966;28;20029;-67
2021/03/13 10:31:26;;;;;;;50.53;30.25;;;;;;;12.78;53.26;99901.78;5062361;28;20278;-66
2021/03/13 10:33:52;;;;;;;54.75;30.20;;;;;;;12.80;52.05;99891.81;5054109;28;20300;-72
2021/03/13 10:36:19;;;;;;;53.60;31.25;;;;;;;12.88;52.54;99905.06;5062668;28;20040;-72
2021/03/13 10:38:51;;;;;;;52.80;30.05;;;;;;;12.88;52.84;99901.56;5052877;28;20043;-64
2021/03/13 10:41:22;;;;;;;51.40;29.88;;;;;;;12.92;53.27;99895.75;5045054;28;20037;-64
2021/03/13 10:43:48;;;;;;;52.08;29.60;;;;;;;13.06;51.57;99878.22;5051139;28;20063;-72
2021/03/13 10:46:20;;;;;;;55.55;31.77;;;;;;;13.08;51.69;99886.84;5062064;28;20207;-72
2021/03/13 10:48:52;;;;;;;50.95;30.83;;;;;;;13.31;52.64;99886.91;5056257;28;20048;-70
2021/03/13 10:51:47;;;;;;;49.55;29.70;;;;;;;13.67;50.49;99897.81;5043262;28;20354;-67
2021/03/13 10:54:24;;;;;;;52.42;29.65;;;;;;;13.81;49.55;99889.06;5041992;28;20041;-73
2021/03/13 10:56:51;;;;;;;52.15;30.63;;;;;;;13.97;49.11;99882.75;5044333;28;20224;-73
2021/03/13 10:59:29;;;;;;;54.85;30.60;;;;;;;14.13;49.84;99882.63;5044658;28;20105;-67
2021/03/13 11:01:54;;;;;;;48.35;29.35;;;;;;;14.06;48.92;99874.53;5046878;28;20029;-72
2021/03/13 11:04:20;;;;;;;45.22;27.77;;;;;;;14.10;49.83;99877.66;5052819;28;20274;-72
2021/03/13 11:06:52;;;;;;;52.55;31.27;;;;;;;13.91;49.79;99873.66;5021389;28;724589;-72
2021/03/13 11:09:18;;;;;;;50.03;29.17;;;;;;;14.04;49.42;99871.22;5046496;28;20715;-67
2021/03/13 11:11:43;;;;;;;47.72;29.40;;;;;;;13.74;50.52;99865.00;5047446;28;20037;-67
2021/03/13 11:14:09;;;;;;;52.10;29.90;;;;;;;13.60;51.26;99865.78;5045666;28;20026;-72
2021/03/13 11:16:36;;;;;;;50.22;29.83;;;;;;;13.68;49.53;99870.22;5046398;28;20025;-73
2021/03/13 11:19:03;;;;;;;47.72;29.08;;;;;;;13.72;50.30;99863.53;5046947;28;20049;-74
2021/03/13 11:21:29;;;;;;;48.60;30.27;;;;;;;13.73;50.22;99862.53;5044844;28;20346;-67
2021/03/13 11:23:54;;;;;;;49.67;29.85;;;;;;;13.67;50.38;99861.41;5045836;28;20305;-67
2021/03/13 11:26:22;;;;;;;51.25;28.10;;;;;;;13.66;49.75;99856.25;5047312;28;20032;-67
2021/03/13 11:28:49;;;;;;;43.97;27.08;;;;;;;13.97;49.07;99856.16;5046491;28;20021;-72
2021/03/13 11:31:14;;;;;;;49.42;28.83;;;;;;;14.28;48.65;99854.16;5056599;28;20025;-67